sensor_id;sensor_type;location;lat;lon;timestamp;P1;durP1;ratioP1;P2;durP2;ratioP2
10641;SDS011;5369;49.586;8.646;2023-06-26T00:01:36;6.47;;;5.87;;
10641;SDS011;5369;49.586;8.646;2023-06-26T00:04:05;6.10;;;5.37;;
10641;SDS011;5369;49.586;8.646;2023-06-26T00:06:31;6.20;;;5.60;;
10641;SDS011;5369;49.586;8.646;2023-06-26T00:08:57;6.07;;;5.57;;
10641;SDS011;5369;49.586;8.646;2023-06-26T00:11:24;5.73;;;5.23;;
10641;SDS011;5369;49.586;8.646;2023-06-26T00:13:52;5.40;;;4.90;;
10641;SDS011;5369;49.586;8.646;2023-06-26T00:16:18;5.57;;;5.07;;
10641;SDS011;5369;49.586;8.646;2023-06-26T00:18:47;5.40;;;5.00;;
10641;SDS011;5369;49.586;8.646;2023-06-26T00:21:13;6.10;;;5.50;;
10641;SDS011;5369;49.586;8.646;2023-06-26T00:23:39;6.03;;;5.47;;
10641;SDS011;5369;49.586;8.646;2023-06-26T00:26:06;5.40;;;4.90;;
10641;SDS011;5369;49.586;8.646;2023-06-26T00:28:32;5.77;;;5.07;;
10641;SDS011;5369;49.586;8.646;2023-06-26T00:30:58;5.10;;;4.70;;
10641;SDS011;5369;49.586;8.646;2023-06-26T00:33:24;5.57;;;5.07;;
10641;SDS011;5369;49.586;8.646;2023-06-26T00:35:50;6.23;;;5.73;;
10641;SDS011;5369;49.586;8.646;2023-06-26T00:38:16;5.57;;;5.07;;
10641;SDS011;5369;49.586;8.646;2023-06-26T00:40:42;6.57;;;5.10;;
10641;SDS011;5369;49.586;8.646;2023-06-26T00:43:09;5.37;;;4.90;;
10641;SDS011;5369;49.586;8.646;2023-06-26T00:45:36;5.70;;;5.20;;
10641;SDS011;5369;49.586;8.646;2023-06-26T00:48:02;5.57;;;5.07;;
10641;SDS011;5369;49.586;8.646;2023-06-26T00:50:28;5.77;;;4.97;;
10641;SDS011;5369;49.586;8.646;2023-06-26T00:52:55;5.63;;;5.03;;
10641;SDS011;5369;49.586;8.646;2023-06-26T00:55:26;5.33;;;4.93;;
10641;SDS011;5369;49.586;8.646;2023-06-26T00:57:52;5.20;;;4.70;;
10641;SDS011;5369;49.586;8.646;2023-06-26T01:00:18;5.80;;;5.30;;
10641;SDS011;5369;49.586;8.646;2023-06-26T01:02:49;5.97;;;5.43;;
10641;SDS011;5369;49.586;8.646;2023-06-26T01:05:15;6.17;;;5.57;;
10641;SDS011;5369;49.586;8.646;2023-06-26T01:07:48;5.97;;;5.47;;
10641;SDS011;5369;49.586;8.646;2023-06-26T01:10:14;5.87;;;5.37;;
10641;SDS011;5369;49.586;8.646;2023-06-26T01:12:40;5.97;;;5.43;;
10641;SDS011;5369;49.586;8.646;2023-06-26T01:15:07;5.40;;;4.90;;
10641;SDS011;5369;49.586;8.646;2023-06-26T01:17:33;5.50;;;5.00;;
10641;SDS011;5369;49.586;8.646;2023-06-26T01:20:02;5.40;;;4.90;;
10641;SDS011;5369;49.586;8.646;2023-06-26T01:22:48;5.13;;;4.73;;
10641;SDS011;5369;49.586;8.646;2023-06-26T01:27:47;5.20;;;4.70;;
10641;SDS011;5369;49.586;8.646;2023-06-26T01:30:14;5.10;;;4.60;;
10641;SDS011;5369;49.586;8.646;2023-06-26T01:32:42;5.83;;;4.93;;
10641;SDS011;5369;49.586;8.646;2023-06-26T01:35:09;5.50;;;5.00;;
10641;SDS011;5369;49.586;8.646;2023-06-26T01:37:35;5.40;;;4.90;;
10641;SDS011;5369;49.586;8.646;2023-06-26T01:40:02;5.37;;;4.87;;
10641;SDS011;5369;49.586;8.646;2023-06-26T01:42:31;5.37;;;4.87;;
10641;SDS011;5369;49.586;8.646;2023-06-26T01:44:57;5.47;;;4.97;;
10641;SDS011;5369;49.586;8.646;2023-06-26T01:47:24;5.03;;;4.63;;
10641;SDS011;5369;49.586;8.646;2023-06-26T01:49:55;5.67;;;4.73;;
10641;SDS011;5369;49.586;8.646;2023-06-26T01:57:27;7.67;;;5.20;;
10641;SDS011;5369;49.586;8.646;2023-06-26T01:59:54;5.83;;;5.17;;
10641;SDS011;5369;49.586;8.646;2023-06-26T02:02:22;7.67;;;5.27;;
10641;SDS011;5369;49.586;8.646;2023-06-26T02:04:49;6.30;;;5.70;;
10641;SDS011;5369;49.586;8.646;2023-06-26T02:07:15;6.53;;;5.93;;
10641;SDS011;5369;49.586;8.646;2023-06-26T02:09:42;6.53;;;5.70;;
10641;SDS011;5369;49.586;8.646;2023-06-26T02:12:09;6.27;;;5.67;;
10641;SDS011;5369;49.586;8.646;2023-06-26T02:14:35;5.50;;;5.00;;
10641;SDS011;5369;49.586;8.646;2023-06-26T02:17:02;10.03;;;5.17;;
10641;SDS011;5369;49.586;8.646;2023-06-26T02:19:29;6.60;;;6.00;;
10641;SDS011;5369;49.586;8.646;2023-06-26T02:21:56;8.27;;;5.83;;
10641;SDS011;5369;49.586;8.646;2023-06-26T02:24:23;6.30;;;5.70;;
10641;SDS011;5369;49.586;8.646;2023-06-26T02:26:49;6.40;;;5.80;;
10641;SDS011;5369;49.586;8.646;2023-06-26T02:29:15;7.13;;;6.10;;
10641;SDS011;5369;49.586;8.646;2023-06-26T02:31:41;7.13;;;5.83;;
10641;SDS011;5369;49.586;8.646;2023-06-26T02:34:08;5.80;;;5.30;;
10641;SDS011;5369;49.586;8.646;2023-06-26T02:36:34;6.40;;;5.80;;
10641;SDS011;5369;49.586;8.646;2023-06-26T02:39:04;6.07;;;5.40;;
10641;SDS011;5369;49.586;8.646;2023-06-26T02:41:30;6.47;;;5.57;;
10641;SDS011;5369;49.586;8.646;2023-06-26T02:43:57;6.30;;;5.70;;
10641;SDS011;5369;49.586;8.646;2023-06-26T02:46:24;5.70;;;5.20;;
10641;SDS011;5369;49.586;8.646;2023-06-26T02:48:51;6.00;;;5.40;;
10641;SDS011;5369;49.586;8.646;2023-06-26T02:51:18;6.20;;;5.40;;
10641;SDS011;5369;49.586;8.646;2023-06-26T02:53:44;6.30;;;5.70;;
10641;SDS011;5369;49.586;8.646;2023-06-26T02:56:10;6.97;;;5.60;;
10641;SDS011;5369;49.586;8.646;2023-06-26T02:58:37;6.27;;;5.57;;
10641;SDS011;5369;49.586;8.646;2023-06-26T03:01:03;6.10;;;5.40;;
10641;SDS011;5369;49.586;8.646;2023-06-26T03:03:29;6.60;;;6.00;;
10641;SDS011;5369;49.586;8.646;2023-06-26T03:05:56;7.50;;;6.10;;
10641;SDS011;5369;49.586;8.646;2023-06-26T03:08:22;5.80;;;5.30;;
10641;SDS011;5369;49.586;8.646;2023-06-26T03:10:49;6.67;;;6.00;;
10641;SDS011;5369;49.586;8.646;2023-06-26T03:13:15;5.70;;;5.20;;
10641;SDS011;5369;49.586;8.646;2023-06-26T03:15:41;7.97;;;5.40;;
10641;SDS011;5369;49.586;8.646;2023-06-26T03:18:07;5.87;;;5.17;;
10641;SDS011;5369;49.586;8.646;2023-06-26T03:20:34;5.50;;;5.00;;
10641;SDS011;5369;49.586;8.646;2023-06-26T03:23:00;5.87;;;5.37;;
10641;SDS011;5369;49.586;8.646;2023-06-26T03:25:27;6.13;;;5.53;;
10641;SDS011;5369;49.586;8.646;2023-06-26T03:28:04;5.73;;;5.13;;
10641;SDS011;5369;49.586;8.646;2023-06-26T03:30:31;6.53;;;5.63;;
10641;SDS011;5369;49.586;8.646;2023-06-26T03:32:57;6.43;;;5.67;;
10641;SDS011;5369;49.586;8.646;2023-06-26T03:35:23;7.83;;;5.70;;
10641;SDS011;5369;49.586;8.646;2023-06-26T03:37:50;6.30;;;5.47;;
10641;SDS011;5369;49.586;8.646;2023-06-26T03:40:16;6.03;;;5.40;;
10641;SDS011;5369;49.586;8.646;2023-06-26T03:42:43;6.10;;;5.50;;
10641;SDS011;5369;49.586;8.646;2023-06-26T03:45:09;6.07;;;5.50;;
10641;SDS011;5369;49.586;8.646;2023-06-26T03:47:36;5.87;;;5.37;;
10641;SDS011;5369;49.586;8.646;2023-06-26T03:50:02;5.63;;;5.13;;
10641;SDS011;5369;49.586;8.646;2023-06-26T03:52:29;6.40;;;5.80;;
10641;SDS011;5369;49.586;8.646;2023-06-26T03:54:59;6.63;;;5.90;;
10641;SDS011;5369;49.586;8.646;2023-06-26T03:57:25;6.50;;;5.80;;
10641;SDS011;5369;49.586;8.646;2023-06-26T03:59:52;6.57;;;5.80;;
10641;SDS011;5369;49.586;8.646;2023-06-26T04:02:20;6.50;;;5.20;;
10641;SDS011;5369;49.586;8.646;2023-06-26T04:04:46;6.20;;;5.60;;
10641;SDS011;5369;49.586;8.646;2023-06-26T04:07:13;5.77;;;5.27;;
10641;SDS011;5369;49.586;8.646;2023-06-26T04:09:39;5.70;;;5.20;;
10641;SDS011;5369;49.586;8.646;2023-06-26T04:12:06;6.50;;;5.90;;
10641;SDS011;5369;49.586;8.646;2023-06-26T04:14:32;6.47;;;5.63;;
10641;SDS011;5369;49.586;8.646;2023-06-26T04:16:59;7.93;;;6.03;;
10641;SDS011;5369;49.586;8.646;2023-06-26T04:19:28;7.33;;;5.53;;
10641;SDS011;5369;49.586;8.646;2023-06-26T04:21:54;6.33;;;5.70;;
10641;SDS011;5369;49.586;8.646;2023-06-26T04:24:20;7.10;;;5.90;;
10641;SDS011;5369;49.586;8.646;2023-06-26T04:26:46;7.07;;;5.73;;
10641;SDS011;5369;49.586;8.646;2023-06-26T04:29:12;7.00;;;6.33;;
10641;SDS011;5369;49.586;8.646;2023-06-26T04:31:38;6.17;;;5.60;;
10641;SDS011;5369;49.586;8.646;2023-06-26T04:34:05;8.10;;;5.67;;
10641;SDS011;5369;49.586;8.646;2023-06-26T04:36:31;6.60;;;5.90;;
10641;SDS011;5369;49.586;8.646;2023-06-26T04:38:58;6.83;;;6.23;;
10641;SDS011;5369;49.586;8.646;2023-06-26T04:41:25;6.80;;;6.03;;
10641;SDS011;5369;49.586;8.646;2023-06-26T04:43:51;7.27;;;6.57;;
10641;SDS011;5369;49.586;8.646;2023-06-26T04:46:17;7.10;;;6.40;;
10641;SDS011;5369;49.586;8.646;2023-06-26T04:48:44;7.97;;;6.63;;
10641;SDS011;5369;49.586;8.646;2023-06-26T04:51:11;7.90;;;6.50;;
10641;SDS011;5369;49.586;8.646;2023-06-26T04:53:37;7.23;;;6.47;;
10641;SDS011;5369;49.586;8.646;2023-06-26T04:56:03;6.87;;;6.27;;
10641;SDS011;5369;49.586;8.646;2023-06-26T04:58:29;9.07;;;6.87;;
10641;SDS011;5369;49.586;8.646;2023-06-26T05:00:55;8.37;;;6.87;;
10641;SDS011;5369;49.586;8.646;2023-06-26T05:03:22;6.73;;;6.13;;
10641;SDS011;5369;49.586;8.646;2023-06-26T05:05:48;9.00;;;5.97;;
10641;SDS011;5369;49.586;8.646;2023-06-26T05:08:16;8.00;;;6.47;;
10641;SDS011;5369;49.586;8.646;2023-06-26T05:10:42;6.90;;;6.30;;
10641;SDS011;5369;49.586;8.646;2023-06-26T05:13:09;7.87;;;6.47;;
10641;SDS011;5369;49.586;8.646;2023-06-26T05:15:35;6.50;;;5.90;;
10641;SDS011;5369;49.586;8.646;2023-06-26T05:18:01;7.70;;;6.50;;
10641;SDS011;5369;49.586;8.646;2023-06-26T05:20:27;7.87;;;6.00;;
10641;SDS011;5369;49.586;8.646;2023-06-26T05:22:53;7.33;;;6.37;;
10641;SDS011;5369;49.586;8.646;2023-06-26T05:25:20;9.50;;;6.00;;
10641;SDS011;5369;49.586;8.646;2023-06-26T05:27:46;7.43;;;6.63;;
10641;SDS011;5369;49.586;8.646;2023-06-26T05:30:13;7.57;;;6.37;;
10641;SDS011;5369;49.586;8.646;2023-06-26T05:32:39;8.27;;;7.00;;
10641;SDS011;5369;49.586;8.646;2023-06-26T05:35:06;7.40;;;6.70;;
10641;SDS011;5369;49.586;8.646;2023-06-26T05:37:33;7.40;;;6.70;;
10641;SDS011;5369;49.586;8.646;2023-06-26T05:40:00;6.77;;;6.17;;
10641;SDS011;5369;49.586;8.646;2023-06-26T05:42:29;6.90;;;6.30;;
10641;SDS011;5369;49.586;8.646;2023-06-26T05:44:55;9.33;;;7.37;;
10641;SDS011;5369;49.586;8.646;2023-06-26T05:47:21;9.97;;;7.17;;
10641;SDS011;5369;49.586;8.646;2023-06-26T05:49:47;8.10;;;7.27;;
10641;SDS011;5369;49.586;8.646;2023-06-26T05:52:14;7.90;;;7.10;;
10641;SDS011;5369;49.586;8.646;2023-06-26T05:54:40;7.77;;;6.90;;
10641;SDS011;5369;49.586;8.646;2023-06-26T05:57:06;8.37;;;7.57;;
10641;SDS011;5369;49.586;8.646;2023-06-26T05:59:33;8.07;;;6.77;;
10641;SDS011;5369;49.586;8.646;2023-06-26T06:01:59;9.30;;;7.20;;
10641;SDS011;5369;49.586;8.646;2023-06-26T06:04:25;8.53;;;7.20;;
10641;SDS011;5369;49.586;8.646;2023-06-26T06:06:51;8.37;;;7.57;;
10641;SDS011;5369;49.586;8.646;2023-06-26T06:09:17;8.17;;;7.30;;
10641;SDS011;5369;49.586;8.646;2023-06-26T06:11:43;11.20;;;8.20;;
10641;SDS011;5369;49.586;8.646;2023-06-26T06:14:10;8.33;;;7.53;;
10641;SDS011;5369;49.586;8.646;2023-06-26T06:16:36;9.03;;;7.60;;
10641;SDS011;5369;49.586;8.646;2023-06-26T06:19:02;8.53;;;7.30;;
10641;SDS011;5369;49.586;8.646;2023-06-26T06:21:29;8.03;;;7.23;;
10641;SDS011;5369;49.586;8.646;2023-06-26T06:23:55;8.67;;;7.53;;
10641;SDS011;5369;49.586;8.646;2023-06-26T06:26:21;9.13;;;7.40;;
10641;SDS011;5369;49.586;8.646;2023-06-26T06:28:47;8.50;;;7.70;;
10641;SDS011;5369;49.586;8.646;2023-06-26T06:31:13;8.37;;;7.47;;
10641;SDS011;5369;49.586;8.646;2023-06-26T06:33:39;8.60;;;7.70;;
10641;SDS011;5369;49.586;8.646;2023-06-26T06:36:06;8.43;;;7.53;;
10641;SDS011;5369;49.586;8.646;2023-06-26T06:38:32;8.33;;;7.50;;
10641;SDS011;5369;49.586;8.646;2023-06-26T06:40:58;8.37;;;7.37;;
10641;SDS011;5369;49.586;8.646;2023-06-26T06:43:24;9.60;;;8.00;;
10641;SDS011;5369;49.586;8.646;2023-06-26T06:45:50;8.13;;;7.33;;
10641;SDS011;5369;49.586;8.646;2023-06-26T06:48:17;8.10;;;7.40;;
10641;SDS011;5369;49.586;8.646;2023-06-26T06:50:43;8.37;;;7.57;;
10641;SDS011;5369;49.586;8.646;2023-06-26T06:53:09;7.93;;;7.13;;
10641;SDS011;5369;49.586;8.646;2023-06-26T06:55:35;8.50;;;7.70;;
10641;SDS011;5369;49.586;8.646;2023-06-26T06:58:01;8.43;;;7.53;;
10641;SDS011;5369;49.586;8.646;2023-06-26T07:00:28;8.00;;;7.20;;
10641;SDS011;5369;49.586;8.646;2023-06-26T07:02:54;7.87;;;7.10;;
10641;SDS011;5369;49.586;8.646;2023-06-26T07:05:21;8.23;;;7.27;;
10641;SDS011;5369;49.586;8.646;2023-06-26T07:07:47;8.10;;;7.30;;
10641;SDS011;5369;49.586;8.646;2023-06-26T07:10:14;7.80;;;7.10;;
10641;SDS011;5369;49.586;8.646;2023-06-26T07:12:40;7.53;;;6.83;;
10641;SDS011;5369;49.586;8.646;2023-06-26T07:15:06;8.53;;;7.73;;
10641;SDS011;5369;49.586;8.646;2023-06-26T07:17:33;8.13;;;7.23;;
10641;SDS011;5369;49.586;8.646;2023-06-26T07:20:00;7.70;;;7.00;;
10641;SDS011;5369;49.586;8.646;2023-06-26T07:22:26;8.13;;;7.33;;
10641;SDS011;5369;49.586;8.646;2023-06-26T07:24:52;8.63;;;7.77;;
10641;SDS011;5369;49.586;8.646;2023-06-26T07:27:19;8.57;;;7.37;;
10641;SDS011;5369;49.586;8.646;2023-06-26T07:29:46;8.40;;;7.60;;
10641;SDS011;5369;49.586;8.646;2023-06-26T07:32:12;7.83;;;7.13;;
10641;SDS011;5369;49.586;8.646;2023-06-26T07:34:38;8.03;;;7.23;;
10641;SDS011;5369;49.586;8.646;2023-06-26T07:37:04;8.30;;;7.50;;
10641;SDS011;5369;49.586;8.646;2023-06-26T07:39:30;9.33;;;7.73;;
10641;SDS011;5369;49.586;8.646;2023-06-26T07:41:56;7.67;;;6.87;;
10641;SDS011;5369;49.586;8.646;2023-06-26T07:44:25;9.10;;;6.90;;
10641;SDS011;5369;49.586;8.646;2023-06-26T07:46:52;8.43;;;7.53;;
10641;SDS011;5369;49.586;8.646;2023-06-26T07:49:18;7.83;;;7.07;;
10641;SDS011;5369;49.586;8.646;2023-06-26T07:51:44;7.97;;;7.13;;
10641;SDS011;5369;49.586;8.646;2023-06-26T07:54:10;8.20;;;7.40;;
10641;SDS011;5369;49.586;8.646;2023-06-26T07:57:22;19.93;;;7.70;;
10641;SDS011;5369;49.586;8.646;2023-06-26T07:59:23;9.67;;;7.20;;
10641;SDS011;5369;49.586;8.646;2023-06-26T08:01:50;9.00;;;7.43;;
10641;SDS011;5369;49.586;8.646;2023-06-26T08:04:20;8.50;;;7.63;;
10641;SDS011;5369;49.586;8.646;2023-06-26T08:06:49;8.07;;;7.27;;
10641;SDS011;5369;49.586;8.646;2023-06-26T08:09:16;8.00;;;7.30;;
10641;SDS011;5369;49.586;8.646;2023-06-26T08:11:43;9.03;;;7.30;;
10641;SDS011;5369;49.586;8.646;2023-06-26T08:14:09;7.97;;;7.17;;
10641;SDS011;5369;49.586;8.646;2023-06-26T08:16:37;8.07;;;7.27;;
10641;SDS011;5369;49.586;8.646;2023-06-26T08:19:03;8.07;;;7.27;;
10641;SDS011;5369;49.586;8.646;2023-06-26T08:21:29;8.30;;;6.60;;
10641;SDS011;5369;49.586;8.646;2023-06-26T08:23:56;8.73;;;7.57;;
10641;SDS011;5369;49.586;8.646;2023-06-26T08:26:22;8.43;;;7.63;;
10641;SDS011;5369;49.586;8.646;2023-06-26T08:28:48;8.50;;;7.70;;
10641;SDS011;5369;49.586;8.646;2023-06-26T08:31:14;8.03;;;7.23;;
10641;SDS011;5369;49.586;8.646;2023-06-26T08:33:40;8.60;;;7.80;;
10641;SDS011;5369;49.586;8.646;2023-06-26T08:36:06;7.77;;;7.07;;
10641;SDS011;5369;49.586;8.646;2023-06-26T08:38:33;8.23;;;7.53;;
10641;SDS011;5369;49.586;8.646;2023-06-26T08:40:59;8.10;;;7.30;;
10641;SDS011;5369;49.586;8.646;2023-06-26T08:43:25;7.77;;;7.07;;
10641;SDS011;5369;49.586;8.646;2023-06-26T08:45:53;7.67;;;6.87;;
10641;SDS011;5369;49.586;8.646;2023-06-26T08:48:20;7.57;;;6.87;;
10641;SDS011;5369;49.586;8.646;2023-06-26T08:50:50;7.80;;;7.10;;
10641;SDS011;5369;49.586;8.646;2023-06-26T08:53:21;7.40;;;6.80;;
10641;SDS011;5369;49.586;8.646;2023-06-26T08:55:49;7.30;;;6.60;;
10641;SDS011;5369;49.586;8.646;2023-06-26T08:58:18;8.03;;;7.23;;
10641;SDS011;5369;49.586;8.646;2023-06-26T09:00:44;8.00;;;7.20;;
10641;SDS011;5369;49.586;8.646;2023-06-26T09:03:10;8.53;;;7.63;;
10641;SDS011;5369;49.586;8.646;2023-06-26T09:05:39;7.93;;;7.23;;
10641;SDS011;5369;49.586;8.646;2023-06-26T09:08:06;7.30;;;6.60;;
10641;SDS011;5369;49.586;8.646;2023-06-26T09:10:33;7.27;;;6.57;;
10641;SDS011;5369;49.586;8.646;2023-06-26T09:12:59;7.70;;;7.10;;
10641;SDS011;5369;49.586;8.646;2023-06-26T09:15:27;7.67;;;6.97;;
10641;SDS011;5369;49.586;8.646;2023-06-26T09:17:56;8.37;;;6.43;;
10641;SDS011;5369;49.586;8.646;2023-06-26T09:20:25;8.50;;;7.03;;
10641;SDS011;5369;49.586;8.646;2023-06-26T09:22:53;6.90;;;6.30;;
10641;SDS011;5369;49.586;8.646;2023-06-26T09:25:20;7.17;;;6.17;;
10641;SDS011;5369;49.586;8.646;2023-06-26T09:27:48;7.83;;;6.97;;
10641;SDS011;5369;49.586;8.646;2023-06-26T09:30:16;7.10;;;6.50;;
10641;SDS011;5369;49.586;8.646;2023-06-26T09:32:43;8.73;;;6.20;;
10641;SDS011;5369;49.586;8.646;2023-06-26T09:35:10;7.00;;;6.37;;
10641;SDS011;5369;49.586;8.646;2023-06-26T09:37:36;7.37;;;6.67;;
10641;SDS011;5369;49.586;8.646;2023-06-26T09:40:03;7.77;;;6.40;;
10641;SDS011;5369;49.586;8.646;2023-06-26T09:42:30;7.20;;;6.50;;
10641;SDS011;5369;49.586;8.646;2023-06-26T09:44:56;6.27;;;5.77;;
10641;SDS011;5369;49.586;8.646;2023-06-26T09:47:23;8.77;;;6.37;;
10641;SDS011;5369;49.586;8.646;2023-06-26T09:49:49;7.23;;;6.53;;
10641;SDS011;5369;49.586;8.646;2023-06-26T09:52:17;7.03;;;6.03;;
10641;SDS011;5369;49.586;8.646;2023-06-26T09:54:47;7.10;;;5.83;;
10641;SDS011;5369;49.586;8.646;2023-06-26T09:57:14;7.30;;;6.40;;
10641;SDS011;5369;49.586;8.646;2023-06-26T09:59:41;6.80;;;6.20;;
10641;SDS011;5369;49.586;8.646;2023-06-26T10:02:08;7.60;;;5.80;;
10641;SDS011;5369;49.586;8.646;2023-06-26T10:04:35;7.00;;;6.40;;
10641;SDS011;5369;49.586;8.646;2023-06-26T10:07:01;6.73;;;6.13;;
10641;SDS011;5369;49.586;8.646;2023-06-26T10:09:29;6.90;;;6.30;;
10641;SDS011;5369;49.586;8.646;2023-06-26T10:12:03;6.70;;;6.10;;
10641;SDS011;5369;49.586;8.646;2023-06-26T10:14:34;6.40;;;5.87;;
10641;SDS011;5369;49.586;8.646;2023-06-26T10:17:01;8.63;;;5.90;;
10641;SDS011;5369;49.586;8.646;2023-06-26T10:19:29;6.63;;;5.93;;
10641;SDS011;5369;49.586;8.646;2023-06-26T10:21:55;7.50;;;6.50;;
10641;SDS011;5369;49.586;8.646;2023-06-26T10:24:23;6.90;;;6.10;;
10641;SDS011;5369;49.586;8.646;2023-06-26T10:26:50;6.37;;;5.87;;
10641;SDS011;5369;49.586;8.646;2023-06-26T10:29:18;6.23;;;5.73;;
10641;SDS011;5369;49.586;8.646;2023-06-26T10:31:48;8.73;;;6.60;;
10641;SDS011;5369;49.586;8.646;2023-06-26T10:34:16;6.97;;;6.37;;
10641;SDS011;5369;49.586;8.646;2023-06-26T10:36:42;7.27;;;6.10;;
10641;SDS011;5369;49.586;8.646;2023-06-26T10:39:08;7.03;;;6.13;;
10641;SDS011;5369;49.586;8.646;2023-06-26T10:41:38;6.83;;;6.20;;
10641;SDS011;5369;49.586;8.646;2023-06-26T10:44:39;6.67;;;6.07;;
10641;SDS011;5369;49.586;8.646;2023-06-26T10:46:57;7.17;;;6.47;;
10641;SDS011;5369;49.586;8.646;2023-06-26T10:49:29;6.40;;;5.80;;
10641;SDS011;5369;49.586;8.646;2023-06-26T10:51:55;7.53;;;6.47;;
10641;SDS011;5369;49.586;8.646;2023-06-26T10:54:28;8.67;;;6.53;;
10641;SDS011;5369;49.586;8.646;2023-06-26T10:56:55;6.33;;;5.83;;
10641;SDS011;5369;49.586;8.646;2023-06-26T10:59:25;6.30;;;5.70;;
10641;SDS011;5369;49.586;8.646;2023-06-26T11:01:58;6.50;;;5.80;;
10641;SDS011;5369;49.586;8.646;2023-06-26T11:04:46;6.30;;;5.40;;
10641;SDS011;5369;49.586;8.646;2023-06-26T11:07:24;6.97;;;5.47;;
10641;SDS011;5369;49.586;8.646;2023-06-26T11:09:54;6.50;;;5.63;;
10641;SDS011;5369;49.586;8.646;2023-06-26T11:12:39;6.20;;;5.57;;
10641;SDS011;5369;49.586;8.646;2023-06-26T11:15:13;6.93;;;5.20;;
10641;SDS011;5369;49.586;8.646;2023-06-26T11:17:40;6.03;;;5.53;;
10641;SDS011;5369;49.586;8.646;2023-06-26T11:20:07;6.53;;;5.93;;
10641;SDS011;5369;49.586;8.646;2023-06-26T11:22:37;6.90;;;6.30;;
10641;SDS011;5369;49.586;8.646;2023-06-26T11:25:03;6.77;;;6.13;;
10641;SDS011;5369;49.586;8.646;2023-06-26T11:27:31;7.90;;;6.90;;
10641;SDS011;5369;49.586;8.646;2023-06-26T11:29:57;8.03;;;6.73;;
10641;SDS011;5369;49.586;8.646;2023-06-26T11:32:25;6.87;;;5.93;;
10641;SDS011;5369;49.586;8.646;2023-06-26T11:34:53;8.70;;;6.40;;
10641;SDS011;5369;49.586;8.646;2023-06-26T11:37:19;6.97;;;6.37;;
10641;SDS011;5369;49.586;8.646;2023-06-26T11:39:45;6.77;;;6.17;;
10641;SDS011;5369;49.586;8.646;2023-06-26T11:42:11;8.40;;;6.23;;
10641;SDS011;5369;49.586;8.646;2023-06-26T11:44:41;7.20;;;6.50;;
10641;SDS011;5369;49.586;8.646;2023-06-26T11:47:11;8.47;;;6.13;;
10641;SDS011;5369;49.586;8.646;2023-06-26T11:49:37;7.50;;;6.80;;
10641;SDS011;5369;49.586;8.646;2023-06-26T11:52:04;7.33;;;6.60;;
10641;SDS011;5369;49.586;8.646;2023-06-26T11:54:30;7.80;;;7.10;;
10641;SDS011;5369;49.586;8.646;2023-06-26T11:56:57;7.30;;;6.70;;
10641;SDS011;5369;49.586;8.646;2023-06-26T11:59:23;7.63;;;6.97;;
10641;SDS011;5369;49.586;8.646;2023-06-26T12:01:50;7.63;;;6.93;;
10641;SDS011;5369;49.586;8.646;2023-06-26T12:04:18;8.00;;;7.20;;
10641;SDS011;5369;49.586;8.646;2023-06-26T12:06:48;6.80;;;6.20;;
10641;SDS011;5369;49.586;8.646;2023-06-26T12:09:16;9.77;;;6.33;;
10641;SDS011;5369;49.586;8.646;2023-06-26T12:11:43;6.77;;;6.10;;
10641;SDS011;5369;49.586;8.646;2023-06-26T12:14:10;6.83;;;6.23;;
10641;SDS011;5369;49.586;8.646;2023-06-26T12:16:36;6.27;;;5.67;;
10641;SDS011;5369;49.586;8.646;2023-06-26T12:19:05;12.07;;;5.87;;
10641;SDS011;5369;49.586;8.646;2023-06-26T12:24:06;7.20;;;5.00;;
10641;SDS011;5369;49.586;8.646;2023-06-26T12:26:32;6.87;;;5.17;;
10641;SDS011;5369;49.586;8.646;2023-06-26T12:29:05;6.27;;;4.93;;
10641;SDS011;5369;49.586;8.646;2023-06-26T12:31:32;5.87;;;5.13;;
10641;SDS011;5369;49.586;8.646;2023-06-26T12:33:58;5.67;;;4.87;;
10641;SDS011;5369;49.586;8.646;2023-06-26T12:36:24;6.27;;;5.33;;
10641;SDS011;5369;49.586;8.646;2023-06-26T12:38:52;5.43;;;4.90;;
10641;SDS011;5369;49.586;8.646;2023-06-26T12:41:18;4.87;;;4.47;;
10641;SDS011;5369;49.586;8.646;2023-06-26T12:43:45;5.57;;;5.07;;
10641;SDS011;5369;49.586;8.646;2023-06-26T12:46:12;5.77;;;5.27;;
10641;SDS011;5369;49.586;8.646;2023-06-26T12:48:42;7.77;;;4.93;;
10641;SDS011;5369;49.586;8.646;2023-06-26T12:51:11;6.40;;;4.70;;
10641;SDS011;5369;49.586;8.646;2023-06-26T12:53:37;6.37;;;4.90;;
10641;SDS011;5369;49.586;8.646;2023-06-26T12:56:07;5.37;;;4.60;;
10641;SDS011;5369;49.586;8.646;2023-06-26T12:58:37;6.37;;;4.80;;
10641;SDS011;5369;49.586;8.646;2023-06-26T13:01:03;7.07;;;4.83;;
10641;SDS011;5369;49.586;8.646;2023-06-26T13:03:30;8.77;;;5.37;;
10641;SDS011;5369;49.586;8.646;2023-06-26T13:05:56;6.40;;;5.23;;
10641;SDS011;5369;49.586;8.646;2023-06-26T13:08:22;6.30;;;5.43;;
10641;SDS011;5369;49.586;8.646;2023-06-26T13:10:49;5.70;;;5.20;;
10641;SDS011;5369;49.586;8.646;2023-06-26T13:13:15;7.07;;;6.37;;
10641;SDS011;5369;49.586;8.646;2023-06-26T13:15:41;7.27;;;6.20;;
10641;SDS011;5369;49.586;8.646;2023-06-26T13:18:07;7.20;;;6.27;;
10641;SDS011;5369;49.586;8.646;2023-06-26T13:20:33;7.73;;;7.03;;
10641;SDS011;5369;49.586;8.646;2023-06-26T13:23:00;9.80;;;7.60;;
10641;SDS011;5369;49.586;8.646;2023-06-26T13:25:26;9.07;;;8.17;;
10641;SDS011;5369;49.586;8.646;2023-06-26T13:27:52;11.53;;;9.30;;
10641;SDS011;5369;49.586;8.646;2023-06-26T13:30:18;11.37;;;10.33;;
10641;SDS011;5369;49.586;8.646;2023-06-26T13:32:44;10.73;;;9.83;;
10641;SDS011;5369;49.586;8.646;2023-06-26T13:35:11;9.93;;;8.90;;
10641;SDS011;5369;49.586;8.646;2023-06-26T13:37:38;9.20;;;8.40;;
10641;SDS011;5369;49.586;8.646;2023-06-26T13:40:05;8.53;;;7.73;;
10641;SDS011;5369;49.586;8.646;2023-06-26T13:42:32;9.33;;;8.43;;
10641;SDS011;5369;49.586;8.646;2023-06-26T13:44:58;8.80;;;7.90;;
10641;SDS011;5369;49.586;8.646;2023-06-26T13:47:24;8.50;;;7.07;;
10641;SDS011;5369;49.586;8.646;2023-06-26T13:49:51;7.13;;;6.53;;
10641;SDS011;5369;49.586;8.646;2023-06-26T13:52:17;7.03;;;6.43;;
10641;SDS011;5369;49.586;8.646;2023-06-26T13:54:43;6.57;;;5.97;;
10641;SDS011;5369;49.586;8.646;2023-06-26T13:57:09;6.07;;;5.57;;
10641;SDS011;5369;49.586;8.646;2023-06-26T13:59:36;6.43;;;5.03;;
10641;SDS011;5369;49.586;8.646;2023-06-26T14:02:02;5.67;;;5.10;;
10641;SDS011;5369;49.586;8.646;2023-06-26T14:04:30;6.30;;;4.53;;
10641;SDS011;5369;49.586;8.646;2023-06-26T14:06:56;9.43;;;4.30;;
10641;SDS011;5369;49.586;8.646;2023-06-26T14:09:22;5.67;;;4.00;;
10641;SDS011;5369;49.586;8.646;2023-06-26T14:11:48;6.03;;;3.73;;
10641;SDS011;5369;49.586;8.646;2023-06-26T14:14:15;8.23;;;4.00;;
10641;SDS011;5369;49.586;8.646;2023-06-26T14:16:41;8.77;;;3.17;;
10641;SDS011;5369;49.586;8.646;2023-06-26T14:19:07;8.97;;;3.23;;
10641;SDS011;5369;49.586;8.646;2023-06-26T14:21:41;5.27;;;3.47;;
10641;SDS011;5369;49.586;8.646;2023-06-26T14:24:07;15.87;;;4.10;;
10641;SDS011;5369;49.586;8.646;2023-06-26T14:26:33;5.40;;;3.40;;
10641;SDS011;5369;49.586;8.646;2023-06-26T14:29:00;5.90;;;3.47;;
10641;SDS011;5369;49.586;8.646;2023-06-26T14:31:26;9.20;;;3.53;;
10641;SDS011;5369;49.586;8.646;2023-06-26T14:33:52;6.30;;;3.50;;
10641;SDS011;5369;49.586;8.646;2023-06-26T14:36:18;9.00;;;3.50;;
10641;SDS011;5369;49.586;8.646;2023-06-26T14:38:45;7.10;;;2.90;;
10641;SDS011;5369;49.586;8.646;2023-06-26T14:41:11;4.57;;;2.87;;
10641;SDS011;5369;49.586;8.646;2023-06-26T14:43:40;3.10;;;2.80;;
10641;SDS011;5369;49.586;8.646;2023-06-26T14:46:06;8.97;;;2.77;;
10641;SDS011;5369;49.586;8.646;2023-06-26T14:48:32;6.07;;;2.70;;
10641;SDS011;5369;49.586;8.646;2023-06-26T14:50:59;3.60;;;2.60;;
10641;SDS011;5369;49.586;8.646;2023-06-26T14:53:25;3.00;;;2.37;;
10641;SDS011;5369;49.586;8.646;2023-06-26T14:55:51;4.23;;;2.57;;
10641;SDS011;5369;49.586;8.646;2023-06-26T14:58:17;3.73;;;2.40;;
10641;SDS011;5369;49.586;8.646;2023-06-26T15:00:44;3.47;;;2.37;;
10641;SDS011;5369;49.586;8.646;2023-06-26T15:03:10;2.87;;;2.37;;
10641;SDS011;5369;49.586;8.646;2023-06-26T15:05:36;2.70;;;2.30;;
10641;SDS011;5369;49.586;8.646;2023-06-26T15:08:02;2.87;;;2.43;;
10641;SDS011;5369;49.586;8.646;2023-06-26T15:10:29;4.23;;;2.20;;